createdAt,value
2018-03-25T00:00:28.510Z,101461.25
2018-03-25T00:02:56.306Z,101463.58
2018-03-25T00:05:24.052Z,101461.63
2018-03-25T00:07:51.887Z,101460.34
2018-03-25T00:10:19.770Z,101463.62
2018-03-25T00:12:47.580Z,101455.39
2018-03-25T00:15:15.307Z,101460.23
2018-03-25T00:17:43.126Z,101456.70
2018-03-25T00:20:10.937Z,101462.81
2018-03-25T00:22:38.716Z,101461.19
2018-03-25T00:25:06.440Z,101460.43
2018-03-25T00:27:34.220Z,101459.22
2018-03-25T00:30:02.055Z,101459.06
2018-03-25T00:32:29.788Z,101459.17
2018-03-25T00:34:57.630Z,101462.86
2018-03-25T00:37:25.367Z,101460.54
2018-03-25T00:39:53.489Z,101477.84
2018-03-25T00:42:21.247Z,101485.44
2018-03-25T00:44:49.070Z,101491.20
2018-03-25T00:47:16.809Z,101486.25
2018-03-25T00:49:44.637Z,101486.11
2018-03-25T00:52:12.374Z,101492.29
2018-03-25T00:54:40.241Z,101488.96
2018-03-25T00:57:07.957Z,101485.43
2018-03-25T00:59:35.914Z,101486.86
2018-03-25T01:02:03.633Z,101480.09
2018-03-25T01:04:32.080Z,101480.58
2018-03-25T01:06:59.712Z,101482.95
2018-03-25T01:09:27.566Z,101481.74
2018-03-25T01:11:55.265Z,101479.25
2018-03-25T01:14:23.097Z,101477.61
2018-03-25T01:16:50.833Z,101475.51
2018-03-25T01:19:18.654Z,101474.66
2018-03-25T01:21:46.565Z,101472.71
2018-03-25T01:24:14.337Z,101469.05
2018-03-25T01:26:42.073Z,101472.89
2018-03-25T01:29:09.902Z,101461.27
2018-03-25T01:31:37.650Z,101464.54
2018-03-25T01:34:05.473Z,101451.91
2018-03-25T01:36:33.222Z,101448.59
2018-03-25T01:39:01.044Z,101449.81
2018-03-25T01:41:28.779Z,101445.06
2018-03-25T01:43:56.627Z,101442.06
2018-03-25T01:46:24.352Z,101437.53
2018-03-25T01:48:52.181Z,101432.63
2018-03-25T01:51:19.927Z,101439.69
2018-03-25T01:53:47.700Z,101436.73
2018-03-25T01:56:15.488Z,101438.00
2018-03-25T01:58:43.331Z,101436.52
2018-03-25T02:01:11.067Z,101432.18
2018-03-25T02:03:38.891Z,101428.06
2018-03-25T02:06:06.637Z,101429.07
2018-03-25T02:08:34.423Z,101423.95
2018-03-25T02:11:02.256Z,101424.68
2018-03-25T02:13:31.110Z,101417.77
2018-03-25T02:15:58.946Z,101413.70
2018-03-25T02:18:26.692Z,101415.04
2018-03-25T02:20:54.547Z,101416.91
2018-03-25T02:23:22.256Z,101413.44
2018-03-25T02:25:50.080Z,101414.92
2018-03-25T02:28:17.819Z,101420.53
2018-03-25T02:30:45.643Z,101414.16
2018-03-25T02:33:13.401Z,101420.16
2018-03-25T02:35:41.134Z,101426.48
2018-03-25T02:38:08.858Z,101426.91
2018-03-25T02:40:36.696Z,101423.41
2018-03-25T02:43:04.434Z,101426.62
2018-03-25T02:45:32.266Z,101422.61
2018-03-25T02:48:00.017Z,101428.88
2018-03-25T02:50:27.839Z,101428.33
2018-03-25T02:52:55.576Z,101432.91
2018-03-25T02:55:23.407Z,101435.14
2018-03-25T02:57:51.081Z,101433.14
2018-03-25T03:00:18.815Z,101431.55
2018-03-25T03:02:46.503Z,101440.20
2018-03-25T03:05:14.234Z,101433.81
2018-03-25T03:07:41.916Z,101441.72
2018-03-25T03:10:09.635Z,101436.91
2018-03-25T03:12:37.322Z,101445.02
2018-03-25T03:15:05.058Z,101438.69
2018-03-25T03:17:32.756Z,101441.31
2018-03-25T03:20:00.536Z,101446.52
2018-03-25T03:22:28.246Z,101442.14
2018-03-25T03:24:55.969Z,101448.95
2018-03-25T03:27:23.657Z,101451.33
2018-03-25T03:29:51.470Z,101457.34
2018-03-25T03:32:19.408Z,101453.96
2018-03-25T03:34:47.253Z,101460.50
2018-03-25T03:37:14.981Z,101466.53
2018-03-25T03:39:42.721Z,101459.80
2018-03-25T03:42:10.446Z,101467.48
2018-03-25T03:44:38.269Z,101462.61
2018-03-25T03:47:06.014Z,101462.67
2018-03-25T03:49:33.841Z,101467.78
2018-03-25T03:52:01.594Z,101461.66
2018-03-25T03:54:29.368Z,101462.61
2018-03-25T03:56:57.198Z,101466.30
2018-03-25T03:59:24.938Z,101468.75
2018-03-25T04:01:52.796Z,101466.84
2018-03-25T04:04:20.524Z,101469.23
2018-03-25T04:06:48.332Z,101467.50
2018-03-25T04:09:16.083Z,101462.02
2018-03-25T04:11:43.909Z,101466.12
2018-03-25T04:14:11.645Z,101465.23
2018-03-25T04:16:39.379Z,101462.89
2018-03-25T04:19:07.118Z,101466.25
2018-03-25T04:21:35.002Z,101473.52
2018-03-25T04:24:02.786Z,101464.11
2018-03-25T04:26:30.619Z,101472.39
2018-03-25T04:28:58.355Z,101469.46
2018-03-25T04:31:26.184Z,101469.59
2018-03-25T04:33:53.924Z,101464.11
2018-03-25T04:36:21.752Z,101471.91
2018-03-25T04:38:49.523Z,101473.45
2018-03-25T04:41:17.326Z,101471.06
2018-03-25T04:43:45.068Z,101470.95
2018-03-25T04:46:12.898Z,101467.37
2018-03-25T04:48:40.655Z,101467.61
2018-03-25T04:51:08.469Z,101462.78
2018-03-25T04:53:36.207Z,101458.38
2018-03-25T04:56:04.116Z,101465.70
2018-03-25T04:58:31.882Z,101463.14
2018-03-25T05:00:59.596Z,101461.70
2018-03-25T05:03:27.346Z,101458.13
2018-03-25T05:05:55.169Z,101461.16
2018-03-25T05:08:22.921Z,101462.52
2018-03-25T05:10:50.755Z,101470.34
2018-03-25T05:13:18.448Z,101465.09
2018-03-25T05:15:46.196Z,101466.65
2018-03-25T05:18:13.889Z,101471.71
2018-03-25T05:20:41.669Z,101469.91
2018-03-25T05:23:09.368Z,101473.31
2018-03-25T05:25:37.087Z,101478.63
2018-03-25T05:28:04.821Z,101475.16
2018-03-25T05:30:32.542Z,101467.07
2018-03-25T05:33:00.232Z,101470.69
2018-03-25T05:35:27.941Z,101468.01
2018-03-25T05:37:55.677Z,101461.75
2018-03-25T05:40:23.375Z,101460.75
2018-03-25T05:42:51.126Z,101461.78
2018-03-25T05:45:18.861Z,101454.94
2018-03-25T05:47:46.698Z,101454.20
2018-03-25T05:50:14.449Z,101458.33
2018-03-25T05:52:42.267Z,101457.02
2018-03-25T05:55:10.009Z,101455.53
2018-03-25T05:57:37.738Z,101454.34
2018-03-25T06:00:05.505Z,101437.94
2018-03-25T06:02:33.311Z,101446.95
2018-03-25T06:05:01.059Z,101434.25
2018-03-25T06:07:28.869Z,101436.11
2018-03-25T06:09:56.559Z,101441.30
2018-03-25T06:12:24.301Z,101437.73
2018-03-25T06:14:51.981Z,101435.87
2018-03-25T06:17:19.721Z,101439.16
2018-03-25T06:19:47.456Z,101442.43
2018-03-25T06:22:15.278Z,101438.77
2018-03-25T06:24:43.008Z,101451.53
2018-03-25T06:27:10.744Z,101450.03
2018-03-25T06:29:38.492Z,101454.58
2018-03-25T06:32:06.322Z,101451.33
2018-03-25T06:34:34.053Z,101461.54
2018-03-25T06:37:01.885Z,101455.38
2018-03-25T06:39:29.645Z,101465.97
2018-03-25T06:41:57.498Z,101462.12
2018-03-25T06:44:25.352Z,101465.45
2018-03-25T06:46:53.132Z,101471.78
2018-03-25T06:49:20.839Z,101470.55
2018-03-25T06:51:48.605Z,101462.80
2018-03-25T06:54:16.430Z,101468.36
2018-03-25T06:56:44.186Z,101470.92
2018-03-25T06:59:11.912Z,101471.18
2018-03-25T07:01:39.775Z,101465.80
2018-03-25T07:04:07.474Z,101476.44
2018-03-25T07:06:35.336Z,101476.34
2018-03-25T07:09:03.163Z,101485.73
2018-03-25T07:11:30.989Z,101481.09
2018-03-25T07:13:58.755Z,101497.98
2018-03-25T07:16:26.523Z,101495.13
2018-03-25T07:18:54.336Z,101497.71
2018-03-25T07:21:22.108Z,101497.13
2018-03-25T07:23:49.893Z,101498.70
2018-03-25T07:26:17.650Z,101500.52
2018-03-25T07:28:45.470Z,101499.26
2018-03-25T07:31:13.207Z,101494.68
2018-03-25T07:33:40.949Z,101502.98
2018-03-25T07:36:08.683Z,101502.98
2018-03-25T07:38:36.511Z,101509.66
2018-03-25T07:41:04.283Z,101509.66
2018-03-25T07:43:32.117Z,101509.91
2018-03-25T07:45:59.814Z,101499.92
2018-03-25T07:48:27.653Z,101499.92
2018-03-25T07:50:55.403Z,101503.27
2018-03-25T07:53:23.271Z,101506.17
2018-03-25T07:55:51.042Z,101509.77
2018-03-25T07:58:18.880Z,101508.89
2018-03-25T08:00:46.620Z,101506.95
2018-03-25T08:03:14.443Z,101511.75
2018-03-25T08:05:42.240Z,101508.58
2018-03-25T08:08:10.033Z,101510.70
2018-03-25T08:10:37.767Z,101505.34
2018-03-25T08:13:05.605Z,101509.77
2018-03-25T08:15:33.340Z,101515.05
2018-03-25T08:18:01.174Z,101505.98
2018-03-25T08:20:28.933Z,101506.05
2018-03-25T08:22:56.774Z,101508.61
2018-03-25T08:25:24.479Z,101509.11
2018-03-25T08:27:52.358Z,101511.47
2018-03-25T08:30:20.191Z,101501.27
2018-03-25T08:32:47.990Z,101504.73
2018-03-25T08:35:15.754Z,101503.97
2018-03-25T08:37:43.575Z,101505.98
2018-03-25T08:40:11.294Z,101514.22
2018-03-25T08:42:39.147Z,101515.14
2018-03-25T08:45:06.894Z,101507.68
2018-03-25T08:47:34.707Z,101505.72
2018-03-25T08:50:02.421Z,101497.06
2018-03-25T08:52:30.203Z,101498.44
2018-03-25T08:54:57.929Z,101494.33
2018-03-25T08:57:25.689Z,101492.49
2018-03-25T08:59:53.461Z,101496.63
2018-03-25T09:02:21.182Z,101490.22
2018-03-25T09:04:48.968Z,101489.28
2018-03-25T09:07:16.721Z,101492.07
2018-03-25T09:09:44.494Z,101496.36
2018-03-25T09:12:12.245Z,101493.73
2018-03-25T09:14:39.987Z,101482.39
2018-03-25T09:17:07.710Z,101485.98
2018-03-25T09:19:35.454Z,101487.72
2018-03-25T09:22:03.254Z,101485.13
2018-03-25T09:24:31.050Z,101478.08
2018-03-25T09:26:58.790Z,101473.86
2018-03-25T09:29:26.601Z,101471.03
2018-03-25T09:31:54.426Z,101469.34
2018-03-25T09:34:22.203Z,101472.05
2018-03-25T09:36:49.926Z,101468.88
2018-03-25T09:39:17.706Z,101475.48
2018-03-25T09:41:45.446Z,101468.66
2018-03-25T09:44:13.206Z,101467.68
2018-03-25T09:46:40.923Z,101473.45
2018-03-25T09:49:08.710Z,101468.73
2018-03-25T09:51:36.420Z,101468.32
2018-03-25T09:54:04.250Z,101465.28
2018-03-25T09:56:31.967Z,101464.98
2018-03-25T09:58:59.713Z,101464.74
2018-03-25T10:01:46.065Z,101455.76
2018-03-25T10:04:13.822Z,101460.47
2018-03-25T10:06:41.591Z,101456.23
2018-03-25T10:09:09.406Z,101458.66
2018-03-25T10:11:37.152Z,101458.92
2018-03-25T10:14:04.991Z,101454.02
2018-03-25T10:16:32.699Z,101449.72
2018-03-25T10:19:00.580Z,101452.43
2018-03-25T10:21:28.492Z,101457.73
2018-03-25T10:23:56.634Z,101450.45
2018-03-25T10:26:25.313Z,101450.37
2018-03-25T10:28:53.128Z,101447.52
2018-03-25T10:31:20.813Z,101447.39
2018-03-25T10:33:48.594Z,101444.23
2018-03-25T10:36:16.327Z,101446.50
2018-03-25T10:38:44.081Z,101450.21
2018-03-25T10:41:11.825Z,101447.91
2018-03-25T10:43:39.539Z,101436.36
2018-03-25T10:46:07.606Z,101430.81
2018-03-25T10:48:35.365Z,101429.52
2018-03-25T10:51:03.102Z,101426.64
2018-03-25T10:53:30.938Z,101417.64
2018-03-25T10:55:58.729Z,101425.95
2018-03-25T10:58:26.475Z,101424.98
2018-03-25T11:00:54.330Z,101433.03
2018-03-25T11:03:22.054Z,101427.70
2018-03-25T11:05:49.893Z,101427.32
2018-03-25T11:08:17.633Z,101408.77
2018-03-25T11:10:45.452Z,101404.50
2018-03-25T11:13:13.151Z,101417.70
2018-03-25T11:15:40.895Z,101409.23
2018-03-25T11:18:08.618Z,101412.08
2018-03-25T11:20:36.540Z,101411.37
2018-03-25T11:23:04.538Z,101418.19
2018-03-25T11:25:32.355Z,101414.22
2018-03-25T11:28:00.096Z,101416.21
2018-03-25T11:30:27.973Z,101415.09
2018-03-25T11:32:55.798Z,101421.98
2018-03-25T11:35:23.562Z,101422.52
2018-03-25T11:37:51.294Z,101413.23
2018-03-25T11:40:19.070Z,101406.76
2018-03-25T11:42:46.761Z,101416.16
2018-03-25T11:45:14.539Z,101408.00
2018-03-25T11:47:42.223Z,101411.16
2018-03-25T11:50:10.015Z,101406.93
2018-03-25T11:52:37.749Z,101418.61
2018-03-25T11:55:05.536Z,101410.98
2018-03-25T11:57:33.257Z,101410.91
2018-03-25T12:00:01.027Z,101405.97
2018-03-25T12:02:28.765Z,101399.55
2018-03-25T12:04:56.534Z,101410.32
2018-03-25T12:07:24.373Z,101403.80
2018-03-25T12:09:52.214Z,101402.58
2018-03-25T12:12:20.005Z,101399.44
2018-03-25T12:14:47.879Z,101403.02
2018-03-25T12:17:15.583Z,101403.94
2018-03-25T12:19:43.350Z,101401.02
2018-03-25T12:22:11.113Z,101388.63
2018-03-25T12:24:38.854Z,101400.02
2018-03-25T12:27:06.575Z,101401.05
2018-03-25T12:29:34.323Z,101399.08
2018-03-25T12:32:02.032Z,101396.25
2018-03-25T12:34:29.747Z,101389.86
2018-03-25T12:36:57.554Z,101385.23
2018-03-25T12:39:25.242Z,101391.98
2018-03-25T12:41:52.970Z,101384.10
2018-03-25T12:44:20.717Z,101376.63
2018-03-25T12:46:49.202Z,101398.59
2018-03-25T12:49:16.946Z,101388.88
2018-03-25T12:51:44.690Z,101380.42
2018-03-25T12:54:12.428Z,101378.44
2018-03-25T12:56:40.194Z,101384.17
2018-03-25T12:59:07.930Z,101374.33
2018-03-25T13:01:35.746Z,101365.78
2018-03-25T13:04:03.491Z,101353.17
2018-03-25T13:06:31.255Z,101361.78
2018-03-25T13:08:58.974Z,101370.29
2018-03-25T13:11:26.738Z,101371.12
2018-03-25T13:13:54.471Z,101361.52
2018-03-25T13:16:22.197Z,101363.70
2018-03-25T13:18:49.922Z,101364.11
2018-03-25T13:21:17.738Z,101365.19
2018-03-25T13:23:45.454Z,101382.40
2018-03-25T13:26:13.223Z,101380.13
2018-03-25T13:28:40.944Z,101384.16
2018-03-25T13:31:08.746Z,101383.47
2018-03-25T13:33:36.475Z,101375.83
2018-03-25T13:36:04.252Z,101376.74
2018-03-25T13:38:31.963Z,101382.32
2018-03-25T13:40:59.703Z,101378.12
2018-03-25T13:43:27.415Z,101375.95
2018-03-25T13:45:55.150Z,101376.10
2018-03-25T13:48:22.907Z,101372.14
2018-03-25T13:50:50.727Z,101369.53
2018-03-25T13:53:18.463Z,101368.14
2018-03-25T13:55:46.220Z,101368.69
2018-03-25T13:58:13.974Z,101367.84
2018-03-25T14:00:41.721Z,101368.34
2018-03-25T14:03:09.446Z,101358.81
2018-03-25T14:05:37.206Z,101356.77
2018-03-25T14:08:04.943Z,101357.27
2018-03-25T14:10:32.819Z,101353.59
2018-03-25T14:13:00.586Z,101355.75
2018-03-25T14:15:28.411Z,101341.64
2018-03-25T14:17:56.142Z,101351.22
2018-03-25T14:20:23.906Z,101344.14
2018-03-25T14:22:51.671Z,101344.39
2018-03-25T14:25:19.396Z,101342.14
2018-03-25T14:27:47.139Z,101346.83
2018-03-25T14:30:14.865Z,101345.84
2018-03-25T14:32:42.654Z,101352.02
2018-03-25T14:35:10.408Z,101346.72
2018-03-25T14:37:38.194Z,101353.25
2018-03-25T14:40:05.951Z,101362.36
2018-03-25T14:42:33.716Z,101361.09
2018-03-25T14:45:01.462Z,101367.44
2018-03-25T14:47:29.316Z,101363.49
2018-03-25T14:49:57.071Z,101369.41
2018-03-25T14:52:24.815Z,101365.87
2018-03-25T14:54:52.534Z,101368.45
2018-03-25T14:57:20.291Z,101361.57
2018-03-25T14:59:48.031Z,101361.43
2018-03-25T15:02:15.803Z,101360.60
2018-03-25T15:04:43.550Z,101359.97
2018-03-25T15:07:11.275Z,101360.19
2018-03-25T15:09:39.010Z,101362.53
2018-03-25T15:12:06.761Z,101367.91
2018-03-25T15:14:34.470Z,101366.14
2018-03-25T15:17:02.243Z,101373.06
2018-03-25T15:19:29.967Z,101382.98
2018-03-25T15:21:57.770Z,101371.98
2018-03-25T15:24:25.538Z,101369.88
2018-03-25T15:26:53.311Z,101373.11
2018-03-25T15:29:21.034Z,101376.39
2018-03-25T15:31:48.809Z,101363.80
2018-03-25T15:34:16.510Z,101364.70
2018-03-25T15:36:44.258Z,101366.32
2018-03-25T15:39:11.979Z,101366.17
2018-03-25T15:41:39.760Z,101359.77
2018-03-25T15:44:07.495Z,101366.48
2018-03-25T15:46:35.246Z,101375.46
2018-03-25T15:49:02.981Z,101382.63
2018-03-25T15:51:30.742Z,101384.14
2018-03-25T15:53:58.461Z,101395.47
2018-03-25T15:56:26.251Z,101401.20
2018-03-25T15:58:53.997Z,101401.54
2018-03-25T16:01:21.730Z,101403.68
2018-03-25T16:03:49.520Z,101408.30
2018-03-25T16:06:17.264Z,101419.15
2018-03-25T16:08:45.022Z,101418.66
2018-03-25T16:11:12.755Z,101425.89
2018-03-25T16:13:40.492Z,101422.33
2018-03-25T16:16:08.177Z,101426.75
2018-03-25T16:18:35.939Z,101424.14
2018-03-25T16:21:03.703Z,101430.23
2018-03-25T16:23:31.495Z,101426.39
2018-03-25T16:25:59.215Z,101429.70
2018-03-25T16:28:26.971Z,101425.05
2018-03-25T16:30:54.703Z,101439.50
2018-03-25T16:33:22.458Z,101442.11
2018-03-25T16:35:50.170Z,101443.36
2018-03-25T16:38:17.930Z,101446.33
2018-03-25T16:40:45.655Z,101445.97
2018-03-25T16:43:13.403Z,101454.28
2018-03-25T16:45:41.126Z,101452.52
2018-03-25T16:48:08.910Z,101458.04
2018-03-25T16:50:36.629Z,101458.47
2018-03-25T16:53:04.425Z,101458.48
2018-03-25T16:55:32.122Z,101471.98
2018-03-25T16:57:59.894Z,101470.23
2018-03-25T17:00:27.629Z,101478.41
2018-03-25T17:02:55.413Z,101471.51
2018-03-25T17:05:23.124Z,101477.06
2018-03-25T17:07:50.894Z,101474.45
2018-03-25T17:10:18.634Z,101479.36
2018-03-25T17:12:46.397Z,101484.90
2018-03-25T17:15:14.183Z,101481.42
2018-03-25T17:17:41.929Z,101490.83
2018-03-25T17:20:09.664Z,101492.42
2018-03-25T17:22:37.435Z,101493.02
2018-03-25T17:25:05.214Z,101496.42
2018-03-25T17:27:33.027Z,101496.59
2018-03-25T17:30:00.811Z,101504.19
2018-03-25T17:32:28.663Z,101501.84
2018-03-25T17:34:56.473Z,101506.83
2018-03-25T17:37:24.323Z,101504.08
2018-03-25T17:39:52.143Z,101501.70
2018-03-25T17:42:20.026Z,101508.70
2018-03-25T17:44:47.824Z,101503.03
2018-03-25T17:47:15.543Z,101503.09
2018-03-25T17:49:43.316Z,101507.19
2018-03-25T17:52:11.004Z,101513.45
2018-03-25T17:54:38.755Z,101507.67
2018-03-25T17:57:06.506Z,101515.35
2018-03-25T17:59:34.294Z,101510.27
2018-03-25T18:02:02.011Z,101521.84
2018-03-25T18:04:29.767Z,101526.91
2018-03-25T18:06:57.459Z,101533.94
2018-03-25T18:09:25.202Z,101537.50
2018-03-25T18:11:52.909Z,101533.80
2018-03-25T18:14:20.672Z,101546.59
2018-03-25T18:16:48.394Z,101548.42
2018-03-25T18:19:16.154Z,101549.66
2018-03-25T18:21:43.901Z,101547.23
2018-03-25T18:24:11.662Z,101555.71
2018-03-25T18:26:39.375Z,101559.00
2018-03-25T18:29:07.095Z,101551.47
2018-03-25T18:31:34.799Z,101554.80
2018-03-25T18:34:02.530Z,101551.30
2018-03-25T18:36:30.225Z,101561.36
2018-03-25T18:38:57.979Z,101557.59
2018-03-25T18:41:25.699Z,101559.27
2018-03-25T18:43:53.461Z,101565.66
2018-03-25T18:46:21.202Z,101570.65
2018-03-25T18:48:48.934Z,101570.61
2018-03-25T18:51:16.656Z,101565.58
2018-03-25T18:53:44.413Z,101571.58
2018-03-25T18:56:12.143Z,101570.77
2018-03-25T18:58:39.895Z,101569.30
2018-03-25T19:01:07.600Z,101571.70
2018-03-25T19:03:35.443Z,101579.41
2018-03-25T19:06:03.147Z,101571.36
2018-03-25T19:08:30.983Z,101578.17
2018-03-25T19:10:58.622Z,101580.13
2018-03-25T19:13:26.346Z,101586.09
2018-03-25T19:15:54.087Z,101584.99
2018-03-25T19:18:21.939Z,101585.05
2018-03-25T19:20:49.719Z,101582.02
2018-03-25T19:23:17.436Z,101582.55
2018-03-25T19:25:45.202Z,101591.02
2018-03-25T19:28:12.916Z,101593.45
2018-03-25T19:30:40.705Z,101592.68
2018-03-25T19:33:08.446Z,101594.27
2018-03-25T19:35:36.187Z,101588.08
2018-03-25T19:38:03.922Z,101590.77
2018-03-25T19:40:31.724Z,101588.94
2018-03-25T19:42:59.464Z,101589.14
2018-03-25T19:45:27.235Z,101595.13
2018-03-25T19:47:54.983Z,101590.25
2018-03-25T19:50:22.762Z,101589.31
2018-03-25T19:52:50.501Z,101591.28
2018-03-25T19:55:18.233Z,101591.02
2018-03-25T19:57:45.998Z,101588.66
2018-03-25T20:00:13.823Z,101587.11
2018-03-25T20:02:41.586Z,101585.17
2018-03-25T20:05:09.406Z,101584.22
2018-03-25T20:07:37.132Z,101581.88
2018-03-25T20:10:04.947Z,101581.57
2018-03-25T20:12:32.690Z,101583.69
2018-03-25T20:15:00.467Z,101587.86
2018-03-25T20:17:28.187Z,101588.41
2018-03-25T20:19:55.941Z,101587.33
2018-03-25T20:22:23.710Z,101584.69
2018-03-25T20:24:51.451Z,101583.05
2018-03-25T20:27:19.166Z,101586.23
2018-03-25T20:29:46.942Z,101594.69
2018-03-25T20:32:14.644Z,101598.43
2018-03-25T20:34:42.443Z,101590.53
2018-03-25T20:37:10.133Z,101593.02
2018-03-25T20:39:37.853Z,101593.63
2018-03-25T20:42:05.558Z,101591.56
2018-03-25T20:44:33.273Z,101593.55
2018-03-25T20:47:00.998Z,101591.45
2018-03-25T20:49:28.780Z,101588.42
2018-03-25T20:51:56.503Z,101584.52
2018-03-25T20:54:24.322Z,101581.59
2018-03-25T20:56:52.042Z,101585.88
2018-03-25T20:59:19.818Z,101581.19
2018-03-25T21:01:47.551Z,101587.14
2018-03-25T21:04:15.250Z,101591.84
2018-03-25T21:06:43.027Z,101593.91
2018-03-25T21:09:10.740Z,101597.28
2018-03-25T21:11:38.480Z,101597.96
2018-03-25T21:14:06.203Z,101603.93
2018-03-25T21:16:33.959Z,101600.48
2018-03-25T21:19:01.710Z,101591.75
2018-03-25T21:21:29.550Z,101590.78
2018-03-25T21:23:57.295Z,101587.18
2018-03-25T21:26:25.432Z,101592.59
2018-03-25T21:28:53.265Z,101590.63
2018-03-25T21:31:21.114Z,101592.31
2018-03-25T21:33:48.817Z,101597.17
2018-03-25T21:36:16.669Z,101596.34
2018-03-25T21:38:44.515Z,101599.23
2018-03-25T21:41:12.362Z,101602.02
2018-03-25T21:43:40.179Z,101600.49
2018-03-25T21:46:08.014Z,101602.42
2018-03-25T21:48:35.806Z,101600.92
2018-03-25T21:51:03.698Z,101592.19
2018-03-25T21:53:31.498Z,101596.47
2018-03-25T21:55:59.347Z,101603.27
2018-03-25T21:58:27.106Z,101601.47
2018-03-25T22:00:54.931Z,101597.60
2018-03-25T22:03:22.670Z,101590.52
2018-03-25T22:05:50.508Z,101596.89
2018-03-25T22:08:18.212Z,101595.09
2018-03-25T22:10:46.083Z,101598.28
2018-03-25T22:13:13.873Z,101594.41
2018-03-25T22:15:41.709Z,101591.35
2018-03-25T22:18:09.452Z,101606.17
2018-03-25T22:20:37.350Z,101600.22
2018-03-25T22:23:05.130Z,101601.18
2018-03-25T22:25:32.944Z,101601.47
2018-03-25T22:28:00.697Z,101602.86
2018-03-25T22:30:28.526Z,101607.02
2018-03-25T22:32:56.276Z,101599.53
2018-03-25T22:35:24.113Z,101600.22
2018-03-25T22:37:51.935Z,101599.67
2018-03-25T22:40:19.774Z,101601.05
2018-03-25T22:42:47.640Z,101595.09
2018-03-25T22:45:15.427Z,101599.96
2018-03-25T22:47:43.216Z,101595.80
2018-03-25T22:50:10.994Z,101604.95
2018-03-25T22:52:38.794Z,101598.16
2018-03-25T22:55:06.529Z,101609.24
2018-03-25T22:57:34.346Z,101611.05
2018-03-25T23:00:02.109Z,101611.05
2018-03-25T23:02:29.918Z,101614.23
2018-03-25T23:04:57.677Z,101612.85
2018-03-25T23:07:25.709Z,101613.39
2018-03-25T23:09:53.458Z,101618.10
2018-03-25T23:12:21.307Z,101614.78
2018-03-25T23:14:49.121Z,101610.74
2018-03-25T23:17:16.930Z,101609.90
2018-03-25T23:19:44.676Z,101612.53
2018-03-25T23:22:14.481Z,101609.19
2018-03-25T23:24:42.184Z,101616.40
2018-03-25T23:27:10.009Z,101613.19
2018-03-25T23:29:37.791Z,101611.94
2018-03-25T23:32:05.609Z,101613.19
2018-03-25T23:34:33.342Z,101612.63
2018-03-25T23:37:01.178Z,101612.09
2018-03-25T23:39:28.892Z,101612.64
2018-03-25T23:41:57.022Z,101612.11
2018-03-25T23:44:24.783Z,101615.01
2018-03-25T23:46:52.588Z,101618.62
2018-03-25T23:49:20.345Z,101615.14
2018-03-25T23:51:48.180Z,101622.51
2018-03-25T23:54:15.912Z,101613.37
2018-03-25T23:56:43.736Z,101620.44
2018-03-25T23:59:11.485Z,101620.16
